Time;durP1;ratioP1;P1;durP2;ratioP2;P2;SDS_P1;SDS_P2;PMS_P1;PMS_P2;Temp;Humidity;BMP_temperature;BMP_pressure;BME280_temperature;BME280_humidity;BME280_pressure;Samples;Min_cycle;Max_cycle;Signal;HPM_P1;HPM_P2
2022/03/02 00:02:25;;;;;;;48.63;27.93;;;-3.10;99.90;-4.40;101698;;;;562305;251;24160;-80
2022/03/02 00:04:50;;;;;;;48.20;29.57;;;-3.10;99.90;-4.40;101696;;;;562353;251;24132;-80
2022/03/02 00:07:21;;;;;;;51.30;28.57;;;-3.10;99.90;-4.40;101682;;;;562462;251;24133;-80
2022/03/02 00:09:47;;;;;;;53.40;30.47;;;-3.10;99.90;-4.40;101690;;;;560076;251;24219;-82
2022/03/02 00:12:15;;;;;;;50.27;31.33;;;-3.10;99.90;-4.40;101699;;;;561963;251;24100;-81
2022/03/02 00:14:46;;;;;;;52.60;29.63;;;-3.10;99.90;-4.40;101698;;;;566375;251;24127;-82
2022/03/02 00:17:14;;;;;;;60.40;32.70;;;-3.10;99.90;-4.50;101694;;;;562407;251;24137;-82
2022/03/02 00:19:39;;;;;;;63.53;36.37;;;-3.10;99.90;-4.50;101691;;;;570586;251;24135;-82
2022/03/02 00:22:10;;;;;;;68.40;34.83;;;-3.20;99.90;-4.60;101684;;;;560900;251;24136;-82
2022/03/02 00:24:38;;;;;;;66.67;37.80;;;-3.20;99.90;-4.60;101680;;;;570272;251;24134;-81
2022/03/02 00:27:06;;;;;;;59.73;36.40;;;-3.30;99.90;-4.60;101672;;;;561666;251;24164;-81
2022/03/02 00:29:34;;;;;;;56.90;35.20;;;-3.30;99.90;-4.60;101681;;;;570309;251;24125;-81
2022/03/02 00:31:58;;;;;;;58.23;33.70;;;-3.30;99.90;-4.60;101675;;;;561903;251;24222;-82
2022/03/02 00:34:27;;;;;;;57.63;32.40;;;-3.30;99.90;-4.70;101670;;;;560908;251;24119;-84
2022/03/02 00:36:57;;;;;;;51.47;30.33;;;-3.30;99.90;-4.60;101668;;;;561732;251;24120;-83
2022/03/02 00:39:22;;;;;;;57.80;33.17;;;-3.30;99.90;-4.70;101663;;;;561383;251;24153;-82
2022/03/02 00:41:51;;;;;;;51.63;30.67;;;-3.30;99.90;-4.70;101665;;;;567353;251;24168;-82
2022/03/02 00:44:18;;;;;;;54.47;30.67;;;-3.40;99.90;-4.80;101665;;;;561538;251;25251;-82
2022/03/02 00:46:46;;;;;;;51.80;30.63;;;-3.40;99.90;-4.80;101659;;;;562973;251;24144;-82
2022/03/02 00:49:15;;;;;;;52.23;30.53;;;-3.50;99.90;-4.80;101652;;;;560876;251;25159;-82
2022/03/02 00:51:46;;;;;;;54.13;32.20;;;-3.60;99.90;-4.90;101658;;;;561116;251;24168;-82
2022/03/02 00:54:15;;;;;;;54.73;31.73;;;-3.60;99.90;-4.90;101664;;;;570249;251;24145;-82
2022/03/02 00:56:40;;;;;;;53.50;32.40;;;-3.60;99.90;-5.00;101655;;;;561846;251;24150;-82
2022/03/02 00:59:08;;;;;;;60.20;33.17;;;-3.70;99.90;-5.10;101653;;;;566503;251;24170;-82
2022/03/02 01:01:36;;;;;;;55.87;32.90;;;-3.70;99.90;-5.10;101652;;;;562470;251;24234;-82
2022/03/02 01:04:07;;;;;;;51.90;32.70;;;-3.70;99.90;-5.10;101647;;;;562660;251;24230;-81
2022/03/02 01:06:32;;;;;;;53.37;31.70;;;-3.80;99.90;-5.20;101648;;;;560596;251;24128;-82
2022/03/02 01:09:01;;;;;;;56.13;33.17;;;-3.80;99.90;-5.20;101645;;;;562673;251;24113;-81
2022/03/02 01:11:29;;;;;;;59.53;33.40;;;-3.90;99.90;-5.20;101641;;;;562599;251;24140;-82
2022/03/02 01:13:56;;;;;;;58.57;32.10;;;-3.90;99.90;-5.30;101634;;;;560827;251;24166;-80
2022/03/02 01:16:24;;;;;;;58.83;32.77;;;-3.90;99.90;-5.20;101636;;;;561037;251;24135;-80
2022/03/02 01:18:52;;;;;;;56.07;34.63;;;-3.90;99.90;-5.20;101626;;;;562145;251;24096;-80
2022/03/02 01:21:25;;;;;;;60.00;33.80;;;-3.90;99.90;-5.20;101622;;;;560755;251;24120;-83
2022/03/02 01:23:49;;;;;;;49.43;30.73;;;-3.90;99.90;-5.20;101619;;;;562047;251;24115;-80
2022/03/02 01:26:17;;;;;;;62.73;32.43;;;-3.90;99.90;-5.30;101628;;;;571211;251;24100;-82
2022/03/02 01:28:45;;;;;;;54.03;33.00;;;-3.90;99.90;-5.30;101609;;;;561240;251;24137;-81
2022/03/02 01:31:13;;;;;;;58.77;31.80;;;-3.90;99.90;-5.30;101608;;;;562795;251;24113;-82
2022/03/02 01:33:44;;;;;;;54.27;32.73;;;-3.90;99.90;-5.30;101614;;;;561151;251;24103;-83
2022/03/02 01:36:09;;;;;;;64.27;34.67;;;-3.90;99.90;-5.30;101609;;;;560488;251;24117;-83
2022/03/02 01:38:38;;;;;;;53.07;32.13;;;-3.90;99.90;-5.30;101607;;;;562789;251;24113;-82
2022/03/02 01:41:10;;;;;;;52.13;31.33;;;-4.00;99.90;-5.30;101612;;;;562847;251;24091;-82
2022/03/02 01:43:35;;;;;;;54.37;31.70;;;-3.90;99.90;-5.30;101599;;;;560510;251;24198;-81
2022/03/02 01:46:03;;;;;;;48.00;29.60;;;-4.00;99.90;-5.30;101597;;;;565969;251;24115;-80
2022/03/02 01:48:31;;;;;;;46.03;28.53;;;-3.90;99.90;-5.30;101596;;;;562782;251;24122;-80
2022/03/02 01:51:02;;;;;;;49.60;27.57;;;-4.00;99.90;-5.30;101597;;;;562715;251;24144;-81
2022/03/02 01:53:41;;;;;;;47.93;27.60;;;-3.90;99.90;-5.20;101590;;;;560794;251;24187;-80
2022/03/02 01:56:08;;;;;;;50.20;26.63;;;-3.90;99.90;-5.20;101609;;;;561273;251;24137;-83
2022/03/02 01:58:35;;;;;;;43.90;28.60;;;-3.80;99.90;-5.20;101599;;;;561432;251;24217;-82
2022/03/02 02:01:03;;;;;;;40.03;24.73;;;-3.80;99.90;-5.20;101580;;;;561817;251;24106;-82
2022/03/02 02:03:33;;;;;;;46.43;25.57;;;-3.90;99.90;-5.10;101580;;;;561528;251;24124;-84
2022/03/02 02:06:00;;;;;;;43.17;26.47;;;-3.80;99.90;-5.10;101573;;;;561762;251;24113;-81
2022/03/02 02:08:27;;;;;;;39.70;26.93;;;-3.80;99.90;-5.10;101568;;;;560643;251;24146;-81
2022/03/02 02:10:58;;;;;;;43.67;26.57;;;-3.70;99.90;-5.00;101569;;;;560787;251;24113;-80
2022/03/02 02:13:22;;;;;;;41.03;26.20;;;-3.70;99.90;-5.00;101572;;;;559885;251;24220;-82
2022/03/02 02:15:50;;;;;;;41.50;25.73;;;-3.70;99.90;-5.10;101566;;;;560508;251;24114;-81
2022/03/02 02:18:17;;;;;;;43.20;26.33;;;-3.70;99.90;-5.00;101561;;;;560150;251;24142;-81
2022/03/02 02:20:44;;;;;;;42.73;27.53;;;-3.70;99.90;-5.00;101566;;;;560656;251;24161;-83
2022/03/02 02:23:11;;;;;;;43.53;27.33;;;-3.70;99.90;-5.00;101564;;;;560399;251;24157;-83
2022/03/02 02:25:40;;;;;;;42.43;25.67;;;-3.70;99.90;-5.00;101559;;;;560698;251;24104;-83
2022/03/02 02:28:07;;;;;;;40.63;26.63;;;-3.70;99.90;-5.10;101555;;;;560488;251;24126;-84
2022/03/02 02:30:36;;;;;;;48.13;26.13;;;-3.70;99.90;-5.10;101551;;;;560915;251;24104;-81
2022/03/02 02:33:03;;;;;;;41.03;25.07;;;-3.70;99.90;-5.10;101554;;;;560528;251;24121;-82
2022/03/02 02:35:30;;;;;;;46.30;26.30;;;-3.70;99.90;-5.10;101554;;;;560850;251;24109;-83
2022/03/02 02:37:57;;;;;;;42.67;26.27;;;-3.70;99.90;-5.10;101542;;;;562368;251;25161;-83
2022/03/02 02:40:24;;;;;;;41.27;26.27;;;-3.70;99.90;-5.10;101552;;;;562617;251;24116;-80
2022/03/02 02:42:51;;;;;;;43.33;25.33;;;-3.70;99.90;-5.10;101547;;;;560724;251;24173;-81
2022/03/02 02:45:20;;;;;;;43.13;24.47;;;-3.70;99.90;-5.10;101533;;;;560930;251;24118;-81
2022/03/02 02:47:46;;;;;;;43.43;24.53;;;-3.70;99.90;-5.00;101536;;;;559868;251;24191;-81
2022/03/02 02:50:14;;;;;;;44.80;26.57;;;-3.70;99.90;-5.00;101538;;;;560054;251;24127;-82
2022/03/02 02:52:42;;;;;;;41.73;24.47;;;-3.70;99.90;-5.00;101544;;;;560143;251;24115;-82
2022/03/02 02:55:10;;;;;;;40.10;23.20;;;-3.60;99.90;-4.90;101546;;;;560642;251;24117;-81
2022/03/02 02:57:37;;;;;;;42.77;25.60;;;-3.60;99.90;-4.90;101537;;;;560851;251;24135;-83
2022/03/02 03:00:05;;;;;;;44.33;25.73;;;-3.60;99.90;-4.90;101542;;;;561324;251;24150;-82
2022/03/02 03:02:33;;;;;;;42.40;25.67;;;-3.60;99.90;-4.90;101537;;;;562098;251;24154;-83
2022/03/02 03:05:00;;;;;;;39.93;26.10;;;-3.60;99.90;-4.90;101538;;;;561512;251;24117;-82
2022/03/02 03:07:28;;;;;;;37.97;24.77;;;-3.50;99.90;-4.90;101529;;;;561162;251;24113;-81
2022/03/02 03:09:55;;;;;;;44.07;26.17;;;-3.50;99.90;-4.90;101532;;;;560329;251;24122;-82
2022/03/02 03:12:22;;;;;;;40.03;24.10;;;-3.50;99.90;-4.90;101523;;;;560687;251;24118;-82
2022/03/02 03:14:51;;;;;;;35.13;23.03;;;-3.60;99.90;-4.90;101525;;;;560402;251;24106;-82
2022/03/02 03:17:18;;;;;;;36.63;23.30;;;-3.60;99.90;-4.90;101525;;;;560644;251;24133;-82
2022/03/02 03:19:45;;;;;;;33.50;22.77;;;-3.60;99.90;-4.90;101520;;;;560131;251;24133;-81
2022/03/02 03:22:12;;;;;;;35.17;22.40;;;-3.60;99.90;-4.90;101519;;;;560411;251;24123;-83
2022/03/02 03:24:39;;;;;;;33.10;21.73;;;-3.60;99.90;-4.90;101516;;;;560049;251;24116;-82
2022/03/02 03:27:07;;;;;;;40.80;23.43;;;-3.60;99.90;-4.90;101518;;;;560536;251;24146;-81
2022/03/02 03:29:35;;;;;;;39.10;25.20;;;-3.60;99.90;-4.80;101517;;;;560078;251;24115;-81
2022/03/02 03:32:02;;;;;;;37.57;24.03;;;-3.50;99.90;-4.80;101520;;;;560128;251;24095;-82
2022/03/02 03:34:29;;;;;;;35.87;23.20;;;-3.50;99.90;-4.70;101519;;;;560356;251;24111;-81
2022/03/02 03:36:57;;;;;;;40.43;22.57;;;-3.30;99.90;-4.60;101518;;;;559682;251;24141;-81
2022/03/02 03:39:26;;;;;;;34.73;22.37;;;-3.40;99.90;-4.60;101513;;;;560132;251;24117;-82
2022/03/02 03:41:55;;;;;;;32.03;20.57;;;-3.30;99.90;-4.60;101508;;;;559792;251;24118;-82
2022/03/02 03:44:20;;;;;;;35.37;21.17;;;-3.30;99.90;-4.60;101512;;;;560213;251;24122;-82
2022/03/02 03:46:48;;;;;;;33.73;21.57;;;-3.30;99.90;-4.70;101499;;;;560402;251;24153;-83
2022/03/02 03:49:16;;;;;;;35.55;22.95;;;-3.30;99.90;-4.60;101507;;;;556941;251;35451;-81
2022/03/02 03:51:44;;;;;;;29.93;16.07;;;-3.30;99.90;-4.60;101487;;;;560004;251;24130;-81
2022/03/02 03:54:12;;;;;;;34.37;22.13;;;-3.30;99.90;-4.60;101496;;;;559670;251;24144;-81
2022/03/02 03:56:39;;;;;;;43.67;22.60;;;-3.30;99.90;-4.60;101494;;;;560069;251;24150;-81
2022/03/02 03:59:08;;;;;;;34.03;20.67;;;-3.30;99.90;-4.60;101491;;;;559689;251;24126;-81
2022/03/02 04:01:34;;;;;;;39.80;21.65;;;-3.30;99.90;-4.60;101488;;;;555667;251;35447;-81
2022/03/02 04:04:02;;;;;;;25.43;12.23;;;-3.20;99.90;-4.50;101491;;;;560112;251;24141;-81
2022/03/02 04:06:29;;;;;;;33.80;21.03;;;-3.20;99.90;-4.50;101484;;;;559988;251;24131;-81
2022/03/02 04:08:57;;;;;;;30.20;20.40;;;-3.10;99.90;-4.40;101478;;;;560086;251;24101;-81
2022/03/02 04:11:24;;;;;;;33.93;20.47;;;-3.10;99.90;-4.30;101473;;;;560732;251;24134;-81
2022/03/02 04:13:53;;;;;;;39.73;21.93;;;-3.00;99.90;-4.30;101481;;;;560892;251;24101;-80
2022/03/02 04:16:19;;;;;;;31.47;20.70;;;-3.00;99.90;-4.20;101467;;;;560729;251;24128;-80
2022/03/02 04:18:48;;;;;;;34.43;22.37;;;-2.90;99.90;-4.10;101461;;;;560294;251;24103;-81
2022/03/02 04:21:15;;;;;;;37.23;22.80;;;-2.90;99.90;-4.10;101465;;;;560793;251;24165;-81
2022/03/02 04:23:42;;;;;;;31.97;20.67;;;-2.80;99.90;-4.10;101469;;;;560391;251;24107;-81
2022/03/02 04:26:10;;;;;;;33.47;22.03;;;-2.80;99.90;-4.10;101464;;;;562234;251;24115;-81
2022/03/02 04:28:37;;;;;;;34.53;21.57;;;-2.80;99.90;-4.10;101472;;;;560146;251;24121;-81
2022/03/02 04:31:04;;;;;;;34.60;20.97;;;-2.80;99.90;-4.00;101471;;;;560319;251;24103;-81
2022/03/02 04:33:31;;;;;;;37.10;21.43;;;-2.80;99.90;-4.00;101460;;;;559836;251;24212;-81
2022/03/02 04:35:58;;;;;;;37.90;22.83;;;-2.80;99.90;-4.00;101470;;;;560620;251;24109;-82
2022/03/02 04:38:25;;;;;;;36.93;21.87;;;-2.80;99.90;-4.00;101464;;;;562170;251;24139;-83
2022/03/02 04:40:53;;;;;;;33.10;21.77;;;-2.70;99.90;-4.00;101462;;;;561061;251;24111;-83
2022/03/02 04:43:21;;;;;;;37.67;21.77;;;-2.80;99.90;-4.10;101463;;;;560910;251;24207;-81
2022/03/02 04:45:48;;;;;;;31.83;20.90;;;-2.80;99.90;-4.10;101463;;;;560995;251;24217;-82
2022/03/02 04:48:15;;;;;;;38.60;22.23;;;-2.80;99.90;-4.10;101468;;;;560971;251;24147;-83
2022/03/02 04:50:43;;;;;;;33.53;21.50;;;-2.80;99.90;-4.10;101462;;;;560619;251;24133;-82
2022/03/02 04:53:11;;;;;;;36.23;22.40;;;-2.80;99.90;-4.10;101458;;;;560391;251;24129;-81
2022/03/02 04:55:39;;;;;;;36.27;21.83;;;-2.80;99.90;-4.00;101463;;;;560456;251;24167;-81
2022/03/02 04:58:06;;;;;;;32.10;21.23;;;-2.80;99.90;-4.00;101454;;;;559976;251;25136;-81
2022/03/02 05:00:34;;;;;;;35.10;21.73;;;-2.70;99.90;-4.00;101450;;;;559559;251;24114;-81
2022/03/02 05:03:01;;;;;;;33.30;20.20;;;-2.80;99.90;-4.00;101450;;;;560045;251;24100;-81
2022/03/02 05:05:28;;;;;;;29.47;19.67;;;-2.70;99.90;-4.00;101442;;;;559622;251;24146;-82
2022/03/02 05:07:56;;;;;;;29.87;20.60;;;-2.70;99.90;-4.00;101441;;;;559874;251;24126;-81
2022/03/02 05:10:23;;;;;;;31.43;20.27;;;-2.80;99.90;-4.10;101436;;;;559503;251;24177;-80
2022/03/02 05:12:51;;;;;;;29.97;19.47;;;-2.80;99.90;-4.10;101433;;;;559841;251;24175;-83
2022/03/02 05:15:19;;;;;;;35.47;20.97;;;-2.80;99.90;-4.10;101425;;;;559919;251;24132;-81
2022/03/02 05:17:45;;;;;;;31.10;18.57;;;-2.80;99.90;-4.10;101430;;;;559969;251;24092;-80
2022/03/02 05:20:13;;;;;;;32.43;19.00;;;-2.80;99.90;-4.00;101436;;;;560203;251;24132;-81
2022/03/02 05:22:40;;;;;;;34.20;19.77;;;-2.80;99.90;-4.10;101427;;;;561235;251;24094;-81
2022/03/02 05:25:07;;;;;;;32.60;20.03;;;-2.70;99.90;-4.00;101427;;;;561120;251;24116;-81
2022/03/02 05:27:34;;;;;;;30.60;20.27;;;-2.70;99.90;-4.00;101431;;;;561326;251;24123;-81
2022/03/02 05:30:04;;;;;;;33.23;19.47;;;-2.70;99.90;-4.00;101426;;;;561175;251;24169;-82
2022/03/02 05:32:32;;;;;;;31.87;20.43;;;-2.70;99.90;-3.90;101417;;;;561813;251;24122;-81
2022/03/02 05:34:59;;;;;;;34.80;20.63;;;-2.70;99.90;-3.90;101411;;;;561509;251;24117;-82
2022/03/02 05:37:26;;;;;;;31.87;21.17;;;-2.70;99.90;-3.90;101421;;;;561055;251;24123;-82
2022/03/02 05:39:53;;;;;;;33.00;20.83;;;-2.70;99.90;-3.90;101409;;;;560851;251;24110;-81
2022/03/02 05:42:20;;;;;;;31.03;19.33;;;-2.60;99.90;-3.90;101423;;;;560869;251;24195;-81
2022/03/02 05:44:49;;;;;;;32.90;20.63;;;-2.60;99.90;-3.90;101415;;;;560425;251;24090;-82
2022/03/02 05:47:15;;;;;;;31.33;19.20;;;-2.70;99.90;-4.00;101412;;;;561267;251;24093;-82
2022/03/02 05:49:44;;;;;;;38.43;21.23;;;-2.70;99.90;-4.00;101408;;;;560762;251;24123;-82
2022/03/02 05:52:11;;;;;;;30.37;19.97;;;-2.70;99.90;-3.90;101409;;;;560940;251;24121;-84
2022/03/02 05:54:40;;;;;;;31.43;20.53;;;-2.60;99.90;-3.80;101404;;;;561286;251;24188;-82
2022/03/02 05:57:07;;;;;;;33.37;21.07;;;-2.60;99.90;-3.70;101413;;;;560973;251;24137;-83
2022/03/02 05:59:34;;;;;;;32.90;20.83;;;-2.40;99.90;-3.60;101412;;;;561185;251;24091;-82
2022/03/02 06:02:02;;;;;;;34.10;20.40;;;-2.40;99.90;-3.50;101421;;;;561183;251;24113;-82
2022/03/02 06:04:29;;;;;;;34.67;20.53;;;-2.30;99.90;-3.50;101415;;;;561236;251;24170;-80
2022/03/02 06:06:56;;;;;;;38.53;21.60;;;-2.20;99.90;-3.40;101413;;;;560881;251;24091;-80
2022/03/02 06:09:24;;;;;;;37.57;23.20;;;-2.20;99.90;-3.40;101416;;;;561072;251;24102;-79
2022/03/02 06:11:51;;;;;;;36.57;21.87;;;-2.20;99.90;-3.30;101420;;;;560255;251;24136;-81
2022/03/02 06:14:19;;;;;;;36.20;21.80;;;-2.10;99.90;-3.20;101411;;;;560060;251;24143;-81
2022/03/02 06:16:46;;;;;;;35.30;21.23;;;-2.00;99.90;-3.10;101413;;;;560552;251;24114;-82
2022/03/02 06:19:14;;;;;;;38.33;22.70;;;-1.90;99.90;-3.00;101402;;;;561236;251;24102;-82
2022/03/02 06:21:43;;;;;;;39.90;21.23;;;-1.80;99.90;-3.00;101406;;;;560940;251;24113;-81
2022/03/02 06:24:09;;;;;;;37.80;20.87;;;-1.80;99.90;-2.90;101410;;;;561229;251;24103;-81
2022/03/02 06:26:38;;;;;;;37.93;20.53;;;-1.70;99.90;-2.80;101407;;;;561023;251;24111;-82
2022/03/02 06:29:05;;;;;;;33.67;19.27;;;-1.60;99.90;-2.70;101410;;;;560916;251;24110;-81
2022/03/02 06:31:33;;;;;;;31.87;18.03;;;-1.50;99.90;-2.60;101401;;;;560007;251;24112;-81
2022/03/02 06:33:59;;;;;;;31.70;19.43;;;-1.40;99.90;-2.50;101402;;;;560264;250;24085;-80
2022/03/02 06:36:27;;;;;;;32.37;16.37;;;-1.30;99.90;-2.30;101412;;;;560858;251;24114;-81
2022/03/02 06:38:54;;;;;;;32.67;17.43;;;-1.20;99.90;-2.20;101417;;;;560880;251;24118;-81
2022/03/02 06:41:24;;;;;;;29.67;16.87;;;-1.10;99.90;-2.10;101406;;;;560314;251;24159;-80
2022/03/02 06:43:49;;;;;;;32.03;18.80;;;-0.80;99.90;-2.00;101418;;;;560369;251;24130;-81
2022/03/02 06:46:16;;;;;;;30.33;12.60;;;-0.80;99.90;-1.80;101405;;;;560653;251;24099;-83
2022/03/02 06:48:43;;;;;;;22.23;11.33;;;-0.70;99.90;-1.70;101394;;;;561682;247;24094;-82
2022/03/02 06:51:12;;;;;;;25.27;10.70;;;-0.50;99.90;-1.60;101405;;;;561632;251;24146;-83
2022/03/02 06:53:39;;;;;;;26.57;11.30;;;-0.40;99.90;-1.10;101403;;;;561631;251;24111;-83
2022/03/02 06:56:11;;;;;;;22.37;11.30;;;0.00;99.90;0.50;101419;;;;561428;251;24073;-83
2022/03/02 06:58:35;;;;;;;18.13;10.47;;;1.30;99.90;3.30;101426;;;;571388;251;24138;-83
2022/03/02 07:01:03;;;;;;;22.57;12.17;;;3.60;99.90;6.20;101435;;;;571222;251;24125;-81
2022/03/02 07:03:30;;;;;;;27.00;13.47;;;6.20;99.90;8.60;101433;;;;571631;251;24128;-80
2022/03/02 07:05:57;;;;;;;26.80;13.63;;;8.60;99.50;10.50;101428;;;;570960;251;24132;-81
2022/03/02 07:08:24;;;;;;;25.73;14.03;;;10.70;89.20;11.90;101429;;;;561145;251;24152;-81
2022/03/02 07:10:53;;;;;;;21.07;13.10;;;12.30;79.60;13.60;101435;;;;560672;251;24143;-83
2022/03/02 07:13:20;;;;;;;28.73;15.70;;;14.00;68.10;14.70;101435;;;;560819;251;24138;-82
2022/03/02 07:15:47;;;;;;;28.93;17.23;;;15.30;61.70;15.70;101427;;;;560535;251;24153;-81
2022/03/02 07:18:15;;;;;;;26.93;15.77;;;16.40;58.40;16.90;101429;;;;559990;251;24092;-80
2022/03/02 07:20:41;;;;;;;29.97;16.57;;;17.40;52.80;17.50;101439;;;;559742;251;24108;-81
2022/03/02 07:23:09;;;;;;;25.40;16.77;;;18.20;51.10;18.30;101437;;;;559969;251;24100;-82
2022/03/02 07:25:36;;;;;;;27.43;16.40;;;19.00;49.70;19.00;101438;;;;559606;251;24168;-81
2022/03/02 07:28:03;;;;;;;30.17;18.50;;;19.70;48.10;19.90;101434;;;;559913;251;24147;-81
2022/03/02 07:30:30;;;;;;;26.37;18.57;;;20.50;45.90;20.80;101438;;;;559554;251;23117;-81
2022/03/02 07:32:58;;;;;;;25.83;17.80;;;21.70;41.50;21.20;101432;;;;560175;251;23132;-83
2022/03/02 07:35:25;;;;;;;29.03;17.00;;;21.70;41.40;21.30;101436;;;;560118;251;23142;-81
2022/03/02 07:37:55;;;;;;;25.10;17.37;;;22.00;40.60;21.50;101440;;;;560305;251;24104;-81
2022/03/02 07:40:20;;;;;;;22.87;17.90;;;22.30;40.70;22.10;101450;;;;559831;251;23129;-81
2022/03/02 07:42:47;;;;;;;32.30;19.87;;;22.80;40.20;22.50;101452;;;;560201;251;24116;-82
2022/03/02 07:45:14;;;;;;;30.00;20.73;;;23.10;39.50;23.20;101453;;;;560227;249;24104;-81
2022/03/02 07:47:41;;;;;;;28.03;21.10;;;23.60;38.40;23.20;101449;;;;561718;251;24190;-81
2022/03/02 07:50:09;;;;;;;32.83;24.03;;;23.80;38.00;23.50;101452;;;;556378;251;35397;-83
2022/03/02 07:52:36;;;;;;;29.90;21.03;;;24.10;37.20;23.70;101451;;;;562719;251;24173;-82
2022/03/02 07:55:03;;;;;;;29.87;19.73;;;24.50;37.20;24.20;101458;;;;561195;251;23189;-83
2022/03/02 07:57:30;;;;;;;27.83;19.57;;;24.90;36.70;24.40;101454;;;;561346;251;23205;-82
2022/03/02 07:59:57;;;;;;;32.90;22.37;;;25.10;36.10;24.70;101446;;;;556631;251;46350;-82
2022/03/02 08:02:24;;;;;;;23.07;19.83;;;25.30;34.90;24.10;101450;;;;560991;251;24160;-82
2022/03/02 08:04:51;;;;;;;31.70;19.90;;;25.10;34.70;22.70;101450;;;;561086;251;24128;-81
2022/03/02 08:07:19;;;;;;;31.53;18.47;;;24.20;35.70;22.60;101444;;;;560783;251;24139;-81
2022/03/02 08:09:46;;;;;;;28.57;20.40;;;23.60;36.60;23.00;101449;;;;560703;251;24151;-81
2022/03/02 08:12:13;;;;;;;30.67;18.97;;;23.80;36.80;23.40;101442;;;;560871;251;23120;-83
2022/03/02 08:14:41;;;;;;;30.40;19.83;;;24.20;36.40;24.20;101453;;;;560714;251;23128;-82
2022/03/02 08:17:08;;;;;;;27.33;19.60;;;24.70;35.40;23.90;101450;;;;560861;251;24160;-82
2022/03/02 08:19:35;;;;;;;26.00;19.03;;;24.70;35.30;24.50;101450;;;;560373;251;24102;-81
2022/03/02 08:22:02;;;;;;;25.67;19.53;;;25.00;34.80;25.10;101451;;;;560156;251;23124;-80
2022/03/02 08:24:30;;;;;;;27.83;21.43;;;26.20;34.30;25.50;101449;;;;559797;251;23269;-81
2022/03/02 08:26:58;;;;;;;30.23;22.73;;;26.20;34.30;26.10;101452;;;;559916;251;23128;-80
2022/03/02 08:29:26;;;;;;;28.47;22.23;;;27.60;33.20;26.90;101457;;;;559808;251;24093;-81
2022/03/02 08:31:53;;;;;;;31.70;21.67;;;27.50;33.10;26.90;101451;;;;560001;251;23169;-80
2022/03/02 08:34:21;;;;;;;27.17;21.50;;;27.80;32.90;27.00;101447;;;;559844;251;23118;-80
2022/03/02 08:36:48;;;;;;;33.67;21.23;;;27.90;32.70;27.30;101452;;;;559911;251;24144;-80
2022/03/02 08:39:15;;;;;;;31.57;24.20;;;28.20;32.50;27.70;101453;;;;555196;251;35583;-81
2022/03/02 08:41:43;;;;;;;26.17;21.17;;;28.60;31.90;27.70;101451;;;;560430;251;23141;-81
2022/03/02 08:44:13;;;;;;;27.90;22.47;;;29.10;31.60;28.10;101456;;;;559719;251;24122;-81
2022/03/02 08:46:41;;;;;;;33.40;22.85;;;29.10;31.60;28.40;101450;;;;560806;251;23117;-82
2022/03/02 08:49:08;;;;;;;31.90;21.60;;;29.30;31.40;28.60;101452;;;;560831;251;23210;-82
2022/03/02 08:51:36;;;;;;;26.65;21.10;;;29.60;31.20;28.70;101453;;;;560802;251;24103;-80
2022/03/02 08:54:03;;;;;;;26.58;19.67;;;29.80;30.80;28.90;101457;;;;560158;251;24154;-80
2022/03/02 08:56:32;;;;;;;25.30;19.77;;;30.00;30.90;29.00;101450;;;;560579;251;23106;-81
2022/03/02 08:58:59;;;;;;;26.95;20.45;;;29.90;30.30;28.70;101454;;;;560334;251;23131;-80
2022/03/02 09:01:27;;;;;;;29.55;19.85;;;29.90;30.20;28.90;101453;;;;562627;251;23129;-79
2022/03/02 09:03:55;;;;;;;26.33;19.80;;;30.00;30.30;28.90;101448;;;;566756;251;23127;-80
2022/03/02 09:06:23;;;;;;;22.62;19.33;;;30.10;30.50;29.10;101460;;;;563000;251;23167;-81
2022/03/02 09:08:54;;;;;;;20.27;17.65;;;30.30;30.10;29.30;101458;;;;563115;251;23123;-82
2022/03/02 09:11:19;;;;;;;23.58;17.95;;;30.50;29.70;28.90;101460;;;;562723;251;23128;-82
2022/03/02 09:13:51;;;;;;;24.35;16.60;;;30.30;29.70;29.00;101456;;;;562995;251;23127;-81
2022/03/02 09:16:15;;;;;;;19.67;16.02;;;30.30;29.40;29.00;101455;;;;560791;251;23124;-82
2022/03/02 09:18:46;;;;;;;18.12;16.23;;;30.30;29.40;29.00;101459;;;;560796;251;23166;-80
2022/03/02 09:21:11;;;;;;;20.15;17.08;;;30.50;29.40;29.50;101462;;;;562352;251;24184;-81
2022/03/02 09:23:41;;;;;;;18.92;16.92;;;30.90;29.00;29.60;101460;;;;557801;251;35599;-83
2022/03/02 09:26:10;;;;;;;19.00;14.70;;;31.30;28.60;29.80;101454;;;;560720;251;23129;-80
2022/03/02 09:28:35;;;;;;;20.35;16.10;;;31.30;28.20;29.30;101444;;;;560162;251;23120;-80
2022/03/02 09:31:03;;;;;;;17.33;15.18;;;31.00;28.20;28.80;101445;;;;561782;251;24152;-79
2022/03/02 09:33:34;;;;;;;18.87;16.85;;;30.60;28.40;28.30;101447;;;;561604;251;24178;-80
2022/03/02 09:35:59;;;;;;;29.33;19.00;;;30.10;28.60;27.70;101450;;;;561444;251;23158;-80
2022/03/02 09:38:32;;;;;;;20.15;14.75;;;28.50;29.30;26.30;101446;;;;561137;251;23137;-81
2022/03/02 09:40:58;;;;;;;12.63;11.30;;;27.00;29.20;24.50;101442;;;;569968;251;24138;-80
2022/03/02 09:43:24;;;;;;;16.60;11.80;;;26.90;29.20;22.90;101436;;;;559600;251;23182;-81
2022/03/02 09:45:52;;;;;;;13.53;11.50;;;25.30;30.00;21.90;101432;;;;561394;251;23147;-80
2022/03/02 09:48:32;;;;;;;15.10;11.50;;;23.10;32.00;21.20;101427;;;;561216;251;24134;-79
2022/03/02 09:51:03;;;;;;;17.20;13.10;;;23.00;32.00;20.40;101426;;;;561352;251;24143;-80
2022/03/02 09:53:34;;;;;;;17.80;12.90;;;22.20;32.90;20.00;101407;;;;558828;251;24166;-81
2022/03/02 09:56:03;;;;;;;16.70;13.77;;;21.00;35.10;19.30;101414;;;;561231;251;24119;-80
2022/03/02 09:58:35;;;;;;;18.73;13.87;;;21.00;35.10;18.70;101410;;;;561319;251;24100;-81
2022/03/02 10:00:59;;;;;;;20.30;12.93;;;20.30;35.80;18.20;101398;;;;559068;251;24154;-81
2022/03/02 10:03:27;;;;;;;19.10;11.93;;;19.80;36.60;17.90;101400;;;;565191;251;24159;-80
2022/03/02 10:05:55;;;;;;;19.70;14.00;;;19.70;36.80;18.30;101392;;;;561437;251;24130;-81
2022/03/02 10:08:23;;;;;;;27.30;13.70;;;20.40;36.20;19.00;101396;;;;561583;249;24132;-80
2022/03/02 10:10:51;;;;;;;16.23;13.33;;;20.40;36.20;19.50;101386;;;;561461;251;23141;-80
2022/03/02 10:13:20;;;;;;;15.57;11.77;;;21.00;35.40;20.00;101395;;;;560832;251;24129;-80
2022/03/02 10:15:48;;;;;;;16.70;12.27;;;21.90;34.40;20.00;101392;;;;562505;251;24114;-80
2022/03/02 10:18:17;;;;;;;17.17;12.60;;;22.10;34.10;20.10;101398;;;;566363;251;23122;-79
2022/03/02 10:20:49;;;;;;;18.50;12.47;;;22.10;33.90;20.10;101391;;;;570605;251;24145;-80
2022/03/02 10:23:36;;;;;;;14.73;12.17;;;22.10;33.90;20.10;101393;;;;570054;251;24136;-80
2022/03/02 10:26:13;;;;;;;17.40;13.65;;;22.10;33.90;20.00;101385;;;;565146;251;35464;-80
2022/03/02 10:29:05;;;;;;;15.07;9.60;;;21.90;33.10;19.70;101382;;;;560124;251;24107;-81
2022/03/02 10:32:00;;;;;;;12.20;10.07;;;21.90;33.10;19.40;101378;;;;560091;251;24115;-81
2022/03/02 10:34:40;;;;;;;11.70;10.27;;;21.60;33.30;19.40;101378;;;;561746;251;23198;-81
2022/03/02 10:37:11;;;;;;;14.47;10.10;;;21.40;33.40;19.00;101376;;;;560192;251;24116;-80
2022/03/02 10:40:17;;;;;;;11.17;8.73;;;21.10;34.00;17.90;101371;;;;559786;251;24126;-80
2022/03/02 10:43:01;;;;;;;12.53;10.60;;;20.30;33.70;16.80;101368;;;;551617;251;24112;-81
2022/03/02 10:45:28;;;;;;;10.87;8.43;;;18.90;35.30;15.30;101367;;;;559781;251;24118;-80
2022/03/02 10:48:08;;;;;;;19.23;9.30;;;17.40;37.00;14.20;101352;;;;565316;251;24173;-79
2022/03/02 10:50:39;;;;;;;14.90;8.57;;;16.00;38.00;13.60;101348;;;;561484;251;24147;-77
2022/03/02 10:53:08;;;;;;;16.03;9.93;;;15.10;39.30;13.00;101350;;;;559904;251;24116;-80
2022/03/02 10:55:36;;;;;;;14.70;10.50;;;14.40;40.30;12.50;101343;;;;560519;251;24126;-79
2022/03/02 10:58:07;;;;;;;15.20;9.47;;;13.70;41.20;12.10;101335;;;;566347;251;24114;-80
2022/03/02 11:00:34;;;;;;;13.53;8.97;;;13.10;42.50;11.70;101326;;;;559951;251;24166;-80